• Join FlightAware (Why Join?)
  • Login
  • US Flag 
02:18PM EDT


 

Airport Tracker/Info


-or-


 

Live Flight TrackerFlight Track Log ✈ PDT4226 ✈ 24-Jan-2014 ✈ KBGM - KPHL

Flight Track Log - Related Links

Times and Time Zones

All times are in EST time to prevent confusion due to time zone crossing. See the PDT4226 flight status page for this flight to view local times or setup timezone preferences in your user account.

Time Position Orientation Groundspeed Altitude Reporting Facility
EST Latitude Longitude Course Direction KTS MPH feet Rate Location/Type
01:35PM 42.0140 -75.9160 180° South  Level Estimated
01:36PM 41.9654 -75.9002 154° Southeast  Level Estimated
01:37PM 41.9168 -75.8844 160° South  Level Estimated
01:38PM 41.8668 -75.8812 177° South  Level FlightAware Approximate
01:39PM 41.8182 -75.8652 159° South  Level Estimated
01:40PM 41.7688 -75.8550 171° South  Level FlightAware Approximate
01:41PM 41.7193 -75.8448 171° South  Level FlightAware Approximate
01:42PM 41.6708 -75.8285 153° Southeast  Level Estimated
01:43PM 41.6223 -75.8122 161° South  Level Estimated
01:44PM 41.5740 -75.7946 165° South  Level FlightAware Approximate
01:45PM 41.5257 -75.7771 165° South  Level FlightAware Approximate
01:46PM 41.4775 -75.7596 165° South  Level FlightAware Approximate
01:47PM 41.4289 -75.7435 162° South  Level Estimated
01:48PM 41.3811 -75.7237 163° South  Level FlightAware Approximate
01:49PM 41.3334 -75.7039 163° South  Level FlightAware Approximate
01:50PM 41.2856 -75.6841 163° South  Level FlightAware Approximate
01:51PM 41.2378 -75.6644 163° South  Level FlightAware Approximate
01:52PM 41.1892 -75.6490 159° South  Level Estimated
01:53PM 41.1405 -75.6336 163° South  Level Estimated
01:54PM 41.0930 -75.6129 162° South  Level FlightAware Approximate
01:55PM 41.0454 -75.5922 162° South  Level FlightAware Approximate
01:56PM 40.9979 -75.5716 162° South  Level FlightAware Approximate
01:57PM 40.9504 -75.5509 162° South  Level FlightAware Approximate
01:58PM 40.9015 -75.5367 190° South  Level Estimated
01:58PM 40.6500 -75.5833 182° South 253 291 6,200  Level Philadelphia TRACON
01:59PM 40.8516 -75.5321 176° South  Level FlightAware Approximate
01:59PM 40.5833 -75.5833 180° South 249 287 6,000  Level Philadelphia TRACON
02:00PM 40.8017 -75.5275 176° South  Level FlightAware Approximate
02:00PM 40.5167 -75.5833 180° South 240 276 6,000  Level Philadelphia TRACON
02:01PM 40.7518 -75.5229 176° South  Level FlightAware Approximate
02:01PM 40.4333 -75.5667 171° South 243 280 5,600  Level Philadelphia TRACON
02:02PM 40.6843 -75.5010 187° South  Level Estimated
02:02PM 40.3667 -75.5500 169° South 274 315 5,000  Level Philadelphia TRACON
02:03PM 40.6149 -75.5049 182° South  Level FlightAware Approximate
02:03PM 40.3167 -75.4833 135° Southeast 262 302 4,900  Level Philadelphia TRACON
02:04PM 40.2667 -75.4167 134° Southeast 257 296 5,000  Climbing Philadelphia TRACON
02:05PM 40.2167 -75.3500 134° Southeast 257 296 5,000 -60 Level Philadelphia TRACON
02:06PM 40.1667 -75.3000 143° Southeast 247 284 4,900 -600 Descending Philadelphia TRACON
02:07PM 40.1333 -75.2333 123° Southeast 217 250 4,000 -540 Descending Philadelphia TRACON
02:08PM 40.0667 -75.2000 159° South 214 246 3,900 -60 Descending Philadelphia TRACON
02:09PM 40.0167 -75.1667 153° Southeast 209 241 3,900  Level Philadelphia TRACON
02:10PM 39.9667 -75.1500 166° South 209 241 3,900  Level Philadelphia TRACON
02:11PM 39.9000 -75.1333 169° South 211 243 4,000  Climbing Philadelphia TRACON
02:12PM 39.8500 -75.1000 153° Southeast 209 241 3,900 -360 Descending Philadelphia TRACON
02:13PM 39.8000 -75.0833 166° South 209 241 3,300 -900 Descending Philadelphia TRACON
02:14PM 39.7667 -75.1167 218° Southwest 186 214 2,300 -900 Descending Philadelphia TRACON
02:15PM 39.8000 -75.1667 311° West 183 211 1,500 -600 Descending Philadelphia TRACON
02:16PM 39.8333 -75.2000 322° Northwest 125 144 1,100 -660 Descending Philadelphia TRACON
02:17PM 39.8500 -75.2167 322° Northwest 119 137 400 -720 Descending Philadelphia TRACON
02:19PM 39.8667 -75.2333 300° West  Level FlightAware Approximate
02:26PM 39.8722 -75.2409 300° West  Level Estimated